sensor_id;sensor_type;location;lat;lon;timestamp;pressure;altitude;pressure_sealevel;temperature;humidity
12781;BME280;6454;43.304;24.344;2023-01-23T00:02:05;101113.34;;;7.90;100.00
12781;BME280;6454;43.304;24.344;2023-01-23T00:04:33;101112.59;;;7.78;100.00
12781;BME280;6454;43.304;24.344;2023-01-23T00:07:00;101113.97;;;7.80;100.00
12781;BME280;6454;43.304;24.344;2023-01-23T00:09:28;101113.28;;;7.85;100.00
12781;BME280;6454;43.304;24.344;2023-01-23T00:11:56;101111.44;;;7.91;100.00
12781;BME280;6454;43.304;24.344;2023-01-23T00:14:23;101114.66;;;7.88;100.00
12781;BME280;6454;43.304;24.344;2023-01-23T00:16:49;101113.97;;;7.80;100.00
12781;BME280;6454;43.304;24.344;2023-01-23T00:19:16;101120.84;;;7.88;100.00
12781;BME280;6454;43.304;24.344;2023-01-23T00:21:45;101120.84;;;7.88;100.00
12781;BME280;6454;43.304;24.344;2023-01-23T00:24:11;101115.38;;;7.83;100.00
12781;BME280;6454;43.304;24.344;2023-01-23T00:26:38;101105.47;;;7.89;100.00
12781;BME280;6454;43.304;24.344;2023-01-23T00:29:05;101099.50;;;7.87;100.00
12781;BME280;6454;43.304;24.344;2023-01-23T00:31:33;101096.72;;;7.82;100.00
12781;BME280;6454;43.304;24.344;2023-01-23T00:34:03;101101.06;;;7.83;100.00
12781;BME280;6454;43.304;24.344;2023-01-23T00:36:31;101112.66;;;7.83;100.00
12781;BME280;6454;43.304;24.344;2023-01-23T00:39:01;101104.00;;;7.81;100.00
12781;BME280;6454;43.304;24.344;2023-01-23T00:41:29;101115.16;;;7.85;100.00
12781;BME280;6454;43.304;24.344;2023-01-23T00:43:56;101115.06;;;7.79;100.00
12781;BME280;6454;43.304;24.344;2023-01-23T00:46:23;101117.75;;;7.79;100.00
12781;BME280;6454;43.304;24.344;2023-01-23T00:48:50;101116.19;;;7.84;100.00
12781;BME280;6454;43.304;24.344;2023-01-23T00:51:17;101111.88;;;7.83;100.00
12781;BME280;6454;43.304;24.344;2023-01-23T00:53:44;101109.66;;;7.79;100.00
12781;BME280;6454;43.304;24.344;2023-01-23T00:56:13;101085.41;;;7.68;100.00
12781;BME280;6454;43.304;24.344;2023-01-23T00:58:39;101110.72;;;7.78;100.00
12781;BME280;6454;43.304;24.344;2023-01-23T01:01:06;101115.28;;;7.78;100.00
12781;BME280;6454;43.304;24.344;2023-01-23T01:03:33;101119.16;;;7.82;100.00
12781;BME280;6454;43.304;24.344;2023-01-23T01:06:00;101124.78;;;7.80;100.00
12781;BME280;6454;43.304;24.344;2023-01-23T01:08:28;101121.59;;;7.84;100.00
12781;BME280;6454;43.304;24.344;2023-01-23T01:10:55;101129.31;;;7.92;100.00
12781;BME280;6454;43.304;24.344;2023-01-23T01:13:23;101137.41;;;7.92;100.00
12781;BME280;6454;43.304;24.344;2023-01-23T01:15:50;101125.38;;;7.83;100.00
12781;BME280;6454;43.304;24.344;2023-01-23T01:18:18;101116.69;;;7.80;100.00
12781;BME280;6454;43.304;24.344;2023-01-23T01:20:46;101127.09;;;7.89;100.00
12781;BME280;6454;43.304;24.344;2023-01-23T01:23:13;101137.25;;;7.98;100.00
12781;BME280;6454;43.304;24.344;2023-01-23T01:25:39;101131.53;;;7.95;100.00
12781;BME280;6454;43.304;24.344;2023-01-23T01:28:07;101137.91;;;7.89;100.00
12781;BME280;6454;43.304;24.344;2023-01-23T01:30:35;101130.22;;;7.97;100.00
12781;BME280;6454;43.304;24.344;2023-01-23T01:33:02;101134.22;;;7.95;100.00
12781;BME280;6454;43.304;24.344;2023-01-23T01:35:29;101123.25;;;7.85;100.00
12781;BME280;6454;43.304;24.344;2023-01-23T01:37:56;101133.56;;;7.88;100.00
12781;BME280;6454;43.304;24.344;2023-01-23T01:40:28;101127.75;;;7.96;100.00
12781;BME280;6454;43.304;24.344;2023-01-23T01:43:01;101125.28;;;7.94;100.00
12781;BME280;6454;43.304;24.344;2023-01-23T01:46:10;101125.13;;;7.84;100.00
12781;BME280;6454;43.304;24.344;2023-01-23T01:48:41;101129.03;;;7.93;100.00
12781;BME280;6454;43.304;24.344;2023-01-23T01:51:14;101139.84;;;7.93;100.00
12781;BME280;6454;43.304;24.344;2023-01-23T01:53:45;101143.56;;;7.87;100.00
12781;BME280;6454;43.304;24.344;2023-01-23T01:56:13;101156.22;;;7.87;100.00
12781;BME280;6454;43.304;24.344;2023-01-23T01:58:43;101158.84;;;7.98;100.00
12781;BME280;6454;43.304;24.344;2023-01-23T02:01:12;101150.53;;;8.00;100.00
12781;BME280;6454;43.304;24.344;2023-01-23T02:03:39;101149.88;;;7.93;100.00
12781;BME280;6454;43.304;24.344;2023-01-23T02:06:07;101146.25;;;7.87;100.00
12781;BME280;6454;43.304;24.344;2023-01-23T02:08:38;101143.16;;;7.95;100.00
12781;BME280;6454;43.304;24.344;2023-01-23T02:11:10;101144.47;;;7.93;100.00
12781;BME280;6454;43.304;24.344;2023-01-23T02:13:38;101142.47;;;7.88;100.00
12781;BME280;6454;43.304;24.344;2023-01-23T02:16:09;101142.56;;;7.93;100.00
12781;BME280;6454;43.304;24.344;2023-01-23T02:18:39;101138.72;;;7.89;100.00
12781;BME280;6454;43.304;24.344;2023-01-23T02:21:10;101142.81;;;7.92;100.00
12781;BME280;6454;43.304;24.344;2023-01-23T02:23:45;101146.56;;;7.91;100.00
12781;BME280;6454;43.304;24.344;2023-01-23T02:26:17;101140.44;;;7.95;100.00
12781;BME280;6454;43.304;24.344;2023-01-23T02:28:47;101136.41;;;7.98;100.00
12781;BME280;6454;43.304;24.344;2023-01-23T02:31:15;101131.19;;;7.91;100.00
12781;BME280;6454;43.304;24.344;2023-01-23T02:33:46;101142.06;;;7.96;100.00
12781;BME280;6454;43.304;24.344;2023-01-23T02:36:12;101132.34;;;7.95;100.00
12781;BME280;6454;43.304;24.344;2023-01-23T02:38:46;101137.41;;;7.92;100.00
12781;BME280;6454;43.304;24.344;2023-01-23T02:41:17;101131.19;;;7.91;100.00
12781;BME280;6454;43.304;24.344;2023-01-23T02:43:47;101131.75;;;7.93;100.00
12781;BME280;6454;43.304;24.344;2023-01-23T02:46:14;101137.75;;;7.95;100.00
12781;BME280;6454;43.304;24.344;2023-01-23T02:48:43;101146.44;;;7.97;100.00
12781;BME280;6454;43.304;24.344;2023-01-23T02:51:10;101137.00;;;8.00;100.00
12781;BME280;6454;43.304;24.344;2023-01-23T02:53:36;101147.66;;;8.06;100.00
12781;BME280;6454;43.304;24.344;2023-01-23T02:56:04;101148.00;;;8.10;100.00
12781;BME280;6454;43.304;24.344;2023-01-23T02:58:32;101155.50;;;8.08;100.00
12781;BME280;6454;43.304;24.344;2023-01-23T03:01:17;101153.97;;;8.12;100.00
12781;BME280;6454;43.304;24.344;2023-01-23T03:03:44;101154.53;;;8.14;100.00
12781;BME280;6454;43.304;24.344;2023-01-23T03:06:11;101149.78;;;8.21;100.00
12781;BME280;6454;43.304;24.344;2023-01-23T03:08:38;101143.81;;;8.19;100.00
12781;BME280;6454;43.304;24.344;2023-01-23T03:11:14;101140.53;;;8.17;100.00
12781;BME280;6454;43.304;24.344;2023-01-23T03:13:43;101155.19;;;8.21;100.00
12781;BME280;6454;43.304;24.344;2023-01-23T03:16:10;101156.81;;;8.22;100.00
12781;BME280;6454;43.304;24.344;2023-01-23T03:18:37;101157.41;;;8.24;100.00
12781;BME280;6454;43.304;24.344;2023-01-23T03:21:05;101147.75;;;8.28;100.00
12781;BME280;6454;43.304;24.344;2023-01-23T03:23:32;101146.13;;;8.27;100.00
12781;BME280;6454;43.304;24.344;2023-01-23T03:26:00;101156.94;;;8.27;100.00
12781;BME280;6454;43.304;24.344;2023-01-23T03:28:27;101150.59;;;8.38;100.00
12781;BME280;6454;43.304;24.344;2023-01-23T03:31:13;101122.81;;;8.26;100.00
12781;BME280;6454;43.304;24.344;2023-01-23T03:33:40;101140.81;;;8.32;100.00
12781;BME280;6454;43.304;24.344;2023-01-23T03:36:09;101138.41;;;8.19;100.00
12781;BME280;6454;43.304;24.344;2023-01-23T03:38:36;101143.50;;;8.32;100.00
12781;BME280;6454;43.304;24.344;2023-01-23T03:41:03;101141.28;;;8.29;100.00
12781;BME280;6454;43.304;24.344;2023-01-23T03:43:47;101146.50;;;8.35;100.00
12781;BME280;6454;43.304;24.344;2023-01-23T03:46:16;101140.31;;;8.35;100.00
12781;BME280;6454;43.304;24.344;2023-01-23T03:48:42;101139.72;;;8.33;100.00
12781;BME280;6454;43.304;24.344;2023-01-23T03:51:09;101139.22;;;8.36;100.00
12781;BME280;6454;43.304;24.344;2023-01-23T03:53:36;101145.13;;;8.33;100.00
12781;BME280;6454;43.304;24.344;2023-01-23T03:56:03;101131.03;;;8.31;100.00
12781;BME280;6454;43.304;24.344;2023-01-23T03:58:30;101128.97;;;8.38;100.00
12781;BME280;6454;43.304;24.344;2023-01-23T04:00:57;101136.53;;;8.36;100.00
12781;BME280;6454;43.304;24.344;2023-01-23T04:03:28;101133.31;;;8.39;100.00
12781;BME280;6454;43.304;24.344;2023-01-23T04:05:56;101136.03;;;8.39;100.00
12781;BME280;6454;43.304;24.344;2023-01-23T04:08:22;101144.97;;;8.39;100.00
12781;BME280;6454;43.304;24.344;2023-01-23T04:10:49;101142.50;;;8.38;100.00
12781;BME280;6454;43.304;24.344;2023-01-23T04:13:16;101150.69;;;8.43;100.00
12781;BME280;6454;43.304;24.344;2023-01-23T04:15:43;101154.47;;;8.42;100.00
12781;BME280;6454;43.304;24.344;2023-01-23T04:18:10;101152.81;;;8.41;100.00
12781;BME280;6454;43.304;24.344;2023-01-23T04:20:38;101155.78;;;8.39;100.00
12781;BME280;6454;43.304;24.344;2023-01-23T04:23:04;101149.63;;;8.44;100.00
12781;BME280;6454;43.304;24.344;2023-01-23T04:25:31;101153.94;;;8.45;100.00
12781;BME280;6454;43.304;24.344;2023-01-23T04:27:58;101152.81;;;8.41;100.00
12781;BME280;6454;43.304;24.344;2023-01-23T04:30:25;101148.25;;;8.41;100.00
12781;BME280;6454;43.304;24.344;2023-01-23T04:32:51;101162.59;;;8.42;100.00
12781;BME280;6454;43.304;24.344;2023-01-23T04:35:18;101156.00;;;8.38;100.00
12781;BME280;6454;43.304;24.344;2023-01-23T04:37:46;101157.75;;;8.44;100.00
12781;BME280;6454;43.304;24.344;2023-01-23T04:40:13;101166.91;;;8.43;100.00
12781;BME280;6454;43.304;24.344;2023-01-23T04:42:40;101173.97;;;8.44;100.00
12781;BME280;6454;43.304;24.344;2023-01-23T04:45:08;101167.72;;;8.43;100.00
12781;BME280;6454;43.304;24.344;2023-01-23T04:47:35;101182.00;;;8.39;100.00
12781;BME280;6454;43.304;24.344;2023-01-23T04:50:03;101183.56;;;8.35;100.00
12781;BME280;6454;43.304;24.344;2023-01-23T04:52:30;101187.06;;;8.35;100.00
12781;BME280;6454;43.304;24.344;2023-01-23T04:54:58;101177.06;;;8.36;100.00
12781;BME280;6454;43.304;24.344;2023-01-23T04:57:25;101183.66;;;8.40;100.00
12781;BME280;6454;43.304;24.344;2023-01-23T04:59:52;101196.75;;;8.31;100.00
12781;BME280;6454;43.304;24.344;2023-01-23T05:02:19;101208.22;;;8.38;100.00
12781;BME280;6454;43.304;24.344;2023-01-23T05:04:46;101216.00;;;8.35;100.00
12781;BME280;6454;43.304;24.344;2023-01-23T05:07:12;101189.41;;;8.15;100.00
12781;BME280;6454;43.304;24.344;2023-01-23T05:09:40;101213.44;;;8.28;100.00
12781;BME280;6454;43.304;24.344;2023-01-23T05:12:08;101217.22;;;8.27;100.00
12781;BME280;6454;43.304;24.344;2023-01-23T05:14:35;101215.19;;;8.34;100.00
12781;BME280;6454;43.304;24.344;2023-01-23T05:17:02;101214.72;;;8.26;100.00
12781;BME280;6454;43.304;24.344;2023-01-23T05:19:28;101222.25;;;8.24;100.00
12781;BME280;6454;43.304;24.344;2023-01-23T05:21:55;101225.53;;;8.26;100.00
12781;BME280;6454;43.304;24.344;2023-01-23T05:24:22;101223.09;;;8.24;100.00
12781;BME280;6454;43.304;24.344;2023-01-23T05:26:49;101226.13;;;8.28;100.00
12781;BME280;6454;43.304;24.344;2023-01-23T05:29:17;101233.44;;;8.27;100.00
12781;BME280;6454;43.304;24.344;2023-01-23T05:31:44;101238.13;;;8.20;100.00
12781;BME280;6454;43.304;24.344;2023-01-23T05:34:10;101240.06;;;8.20;100.00
12781;BME280;6454;43.304;24.344;2023-01-23T05:36:37;101246.25;;;8.20;100.00
12781;BME280;6454;43.304;24.344;2023-01-23T05:39:04;101251.91;;;8.19;100.00
12781;BME280;6454;43.304;24.344;2023-01-23T05:41:31;101249.78;;;8.21;100.00
12781;BME280;6454;43.304;24.344;2023-01-23T05:43:57;101249.28;;;8.24;100.00
12781;BME280;6454;43.304;24.344;2023-01-23T05:46:26;101254.13;;;8.22;100.00
12781;BME280;6454;43.304;24.344;2023-01-23T05:48:52;101245.09;;;8.16;100.00
12781;BME280;6454;43.304;24.344;2023-01-23T05:51:19;101255.34;;;8.14;100.00
12781;BME280;6454;43.304;24.344;2023-01-23T05:53:47;101257.78;;;8.16;100.00
12781;BME280;6454;43.304;24.344;2023-01-23T05:56:14;101249.59;;;8.11;100.00
12781;BME280;6454;43.304;24.344;2023-01-23T05:58:41;101252.31;;;8.11;100.00
12781;BME280;6454;43.304;24.344;2023-01-23T06:01:07;101267.00;;;8.15;100.00
12781;BME280;6454;43.304;24.344;2023-01-23T06:03:35;101260.41;;;8.11;100.00
12781;BME280;6454;43.304;24.344;2023-01-23T06:06:02;101249.31;;;7.96;100.00
12781;BME280;6454;43.304;24.344;2023-01-23T06:08:29;101278.41;;;8.05;100.00
12781;BME280;6454;43.304;24.344;2023-01-23T06:10:57;101291.13;;;8.05;100.00
12781;BME280;6454;43.304;24.344;2023-01-23T06:13:24;101295.94;;;8.03;100.00
12781;BME280;6454;43.304;24.344;2023-01-23T06:15:51;101280.22;;;8.00;100.00
12781;BME280;6454;43.304;24.344;2023-01-23T06:18:18;101267.19;;;7.97;100.00
12781;BME280;6454;43.304;24.344;2023-01-23T06:20:46;101288.00;;;8.13;100.00
12781;BME280;6454;43.304;24.344;2023-01-23T06:23:14;101294.50;;;8.12;100.00
12781;BME280;6454;43.304;24.344;2023-01-23T06:25:41;101291.88;;;8.17;100.00
12781;BME280;6454;43.304;24.344;2023-01-23T06:28:08;101296.72;;;8.15;100.00
12781;BME280;6454;43.304;24.344;2023-01-23T06:30:36;101313.50;;;8.17;100.00
12781;BME280;6454;43.304;24.344;2023-01-23T06:33:03;101310.53;;;8.18;100.00
12781;BME280;6454;43.304;24.344;2023-01-23T06:35:29;101315.13;;;8.18;100.00
12781;BME280;6454;43.304;24.344;2023-01-23T06:37:57;101305.34;;;8.28;100.00
12781;BME280;6454;43.304;24.344;2023-01-23T06:40:24;101312.16;;;8.31;99.91
12781;BME280;6454;43.304;24.344;2023-01-23T06:42:53;101303.09;;;8.25;99.63
12781;BME280;6454;43.304;24.344;2023-01-23T06:45:21;101305.22;;;8.35;99.77
12781;BME280;6454;43.304;24.344;2023-01-23T06:47:47;101319.31;;;8.37;99.58
12781;BME280;6454;43.304;24.344;2023-01-23T06:50:15;101322.25;;;8.35;99.30
12781;BME280;6454;43.304;24.344;2023-01-23T06:52:42;101316.03;;;8.35;99.65
12781;BME280;6454;43.304;24.344;2023-01-23T06:55:10;101321.75;;;8.38;99.31
12781;BME280;6454;43.304;24.344;2023-01-23T06:57:37;101325.56;;;8.37;99.48
12781;BME280;6454;43.304;24.344;2023-01-23T07:00:06;101328.72;;;8.34;100.00
12781;BME280;6454;43.304;24.344;2023-01-23T07:02:34;101325.56;;;8.37;99.84
12781;BME280;6454;43.304;24.344;2023-01-23T07:05:03;101333.16;;;8.40;99.29
12781;BME280;6454;43.304;24.344;2023-01-23T07:07:29;101337.16;;;8.38;99.64
12781;BME280;6454;43.304;24.344;2023-01-23T07:09:56;101342.66;;;8.43;99.60
12781;BME280;6454;43.304;24.344;2023-01-23T07:12:24;101342.66;;;8.43;99.31
12781;BME280;6454;43.304;24.344;2023-01-23T07:14:51;101345.38;;;8.43;99.11
12781;BME280;6454;43.304;24.344;2023-01-23T07:17:18;101348.63;;;8.45;99.25
12781;BME280;6454;43.304;24.344;2023-01-23T07:19:44;101349.72;;;8.44;99.13
12781;BME280;6454;43.304;24.344;2023-01-23T07:22:11;101329.94;;;8.27;98.92
12781;BME280;6454;43.304;24.344;2023-01-23T07:24:38;101358.66;;;8.45;99.48
12781;BME280;6454;43.304;24.344;2023-01-23T07:27:05;101351.69;;;8.49;99.69
12781;BME280;6454;43.304;24.344;2023-01-23T07:29:33;101354.88;;;8.46;99.43
12781;BME280;6454;43.304;24.344;2023-01-23T07:32:00;101359.72;;;8.43;99.52
12781;BME280;6454;43.304;24.344;2023-01-23T07:34:26;101349.16;;;8.42;100.00
12781;BME280;6454;43.304;24.344;2023-01-23T07:36:53;101369.78;;;8.48;99.84
12781;BME280;6454;43.304;24.344;2023-01-23T07:39:20;101366.25;;;8.48;100.00
12781;BME280;6454;43.304;24.344;2023-01-23T07:41:47;101376.38;;;8.52;99.11
12781;BME280;6454;43.304;24.344;2023-01-23T07:44:15;101372.00;;;8.51;98.99
12781;BME280;6454;43.304;24.344;2023-01-23T07:46:44;101373.66;;;8.52;99.25
12781;BME280;6454;43.304;24.344;2023-01-23T07:49:12;101360.94;;;8.53;98.69
12781;BME280;6454;43.304;24.344;2023-01-23T07:51:39;101366.34;;;8.53;99.47
12781;BME280;6454;43.304;24.344;2023-01-23T07:54:06;101353.66;;;8.53;98.65
12781;BME280;6454;43.304;24.344;2023-01-23T07:56:33;101347.41;;;8.53;99.38
12781;BME280;6454;43.304;24.344;2023-01-23T07:59:00;101344.81;;;8.58;99.55
12781;BME280;6454;43.304;24.344;2023-01-23T08:01:27;101348.69;;;8.62;99.08
12781;BME280;6454;43.304;24.344;2023-01-23T08:03:55;101354.41;;;8.65;98.73
12781;BME280;6454;43.304;24.344;2023-01-23T08:06:22;101357.53;;;8.74;99.29
12781;BME280;6454;43.304;24.344;2023-01-23T08:08:49;101360.00;;;8.75;98.86
12781;BME280;6454;43.304;24.344;2023-01-23T08:11:16;101360.34;;;8.79;97.89
12781;BME280;6454;43.304;24.344;2023-01-23T08:13:42;101354.09;;;8.78;97.50
12781;BME280;6454;43.304;24.344;2023-01-23T08:16:09;101369.03;;;8.81;97.69
12781;BME280;6454;43.304;24.344;2023-01-23T08:18:36;101265.16;;;8.20;97.72
12781;BME280;6454;43.304;24.344;2023-01-23T08:21:04;101364.91;;;8.78;97.96
12781;BME280;6454;43.304;24.344;2023-01-23T08:23:32;101356.88;;;8.83;98.81
12781;BME280;6454;43.304;24.344;2023-01-23T08:26:02;101351.72;;;8.82;97.79
12781;BME280;6454;43.304;24.344;2023-01-23T08:28:30;101361.00;;;8.86;97.40
12781;BME280;6454;43.304;24.344;2023-01-23T08:30:59;101360.25;;;8.90;97.27
12781;BME280;6454;43.304;24.344;2023-01-23T08:33:26;101360.75;;;8.87;97.13
12781;BME280;6454;43.304;24.344;2023-01-23T08:35:54;101366.75;;;8.89;98.25
12781;BME280;6454;43.304;24.344;2023-01-23T08:38:23;101359.84;;;8.98;98.06
12781;BME280;6454;43.304;24.344;2023-01-23T08:40:51;101373.94;;;9.00;98.07
12781;BME280;6454;43.304;24.344;2023-01-23T08:43:19;101380.28;;;9.06;97.87
12781;BME280;6454;43.304;24.344;2023-01-23T08:45:48;101389.03;;;9.13;96.87
12781;BME280;6454;43.304;24.344;2023-01-23T08:48:15;101373.97;;;9.17;97.09
12781;BME280;6454;43.304;24.344;2023-01-23T08:50:43;101377.31;;;9.24;96.63
12781;BME280;6454;43.304;24.344;2023-01-23T08:53:10;101377.06;;;9.26;95.65
12781;BME280;6454;43.304;24.344;2023-01-23T08:55:39;101377.31;;;9.24;95.62
12781;BME280;6454;43.304;24.344;2023-01-23T08:58:07;101376.81;;;9.27;95.88
12781;BME280;6454;43.304;24.344;2023-01-23T09:00:34;101386.56;;;9.28;95.67
12781;BME280;6454;43.304;24.344;2023-01-23T09:03:02;101375.00;;;9.33;95.56
12781;BME280;6454;43.304;24.344;2023-01-23T09:05:30;101379.69;;;9.37;95.80
12781;BME280;6454;43.304;24.344;2023-01-23T09:07:57;101372.91;;;9.40;95.82
12781;BME280;6454;43.304;24.344;2023-01-23T09:10:25;101386.59;;;9.50;94.87
12781;BME280;6454;43.304;24.344;2023-01-23T09:12:53;101375.28;;;9.53;93.95
12781;BME280;6454;43.304;24.344;2023-01-23T09:15:21;101382.09;;;9.55;93.03
12781;BME280;6454;43.304;24.344;2023-01-23T09:17:48;101388.66;;;9.59;94.26
12781;BME280;6454;43.304;24.344;2023-01-23T09:20:15;101377.38;;;9.67;94.25
12781;BME280;6454;43.304;24.344;2023-01-23T09:22:42;101375.50;;;9.68;93.64
12781;BME280;6454;43.304;24.344;2023-01-23T09:25:10;101369.31;;;9.72;93.44
12781;BME280;6454;43.304;24.344;2023-01-23T09:27:37;101365.00;;;9.71;91.76
12781;BME280;6454;43.304;24.344;2023-01-23T09:30:06;101364.03;;;9.61;92.08
12781;BME280;6454;43.304;24.344;2023-01-23T09:32:33;101364.03;;;9.61;93.73
12781;BME280;6454;43.304;24.344;2023-01-23T09:35:00;101365.16;;;9.65;93.37
12781;BME280;6454;43.304;24.344;2023-01-23T09:37:28;101364.34;;;9.64;92.26
12781;BME280;6454;43.304;24.344;2023-01-23T09:40:17;101359.50;;;9.66;93.32
12781;BME280;6454;43.304;24.344;2023-01-23T09:42:45;101358.22;;;9.52;92.11
12781;BME280;6454;43.304;24.344;2023-01-23T09:45:18;101368.69;;;9.65;93.02
12781;BME280;6454;43.304;24.344;2023-01-23T09:47:49;101370.91;;;9.68;92.06
12781;BME280;6454;43.304;24.344;2023-01-23T09:50:22;101366.59;;;9.72;92.39
12781;BME280;6454;43.304;24.344;2023-01-23T09:52:54;101353.31;;;9.71;91.98
12781;BME280;6454;43.304;24.344;2023-01-23T09:55:33;101353.81;;;9.68;91.56
12781;BME280;6454;43.304;24.344;2023-01-23T09:58:02;101342.81;;;9.75;92.29
12781;BME280;6454;43.304;24.344;2023-01-23T10:00:32;101344.75;;;9.79;91.82
12781;BME280;6454;43.304;24.344;2023-01-23T10:03:02;101336.13;;;9.82;92.92
12781;BME280;6454;43.304;24.344;2023-01-23T10:05:35;101292.97;;;9.54;91.69
12781;BME280;6454;43.304;24.344;2023-01-23T10:08:16;101342.13;;;9.84;90.77
12781;BME280;6454;43.304;24.344;2023-01-23T10:10:53;101339.97;;;9.86;91.69
12781;BME280;6454;43.304;24.344;2023-01-23T10:13:32;101340.47;;;9.83;91.43
12781;BME280;6454;43.304;24.344;2023-01-23T10:16:14;101324.63;;;9.75;90.85
12781;BME280;6454;43.304;24.344;2023-01-23T10:18:59;101331.59;;;9.66;90.46
12781;BME280;6454;43.304;24.344;2023-01-23T10:21:33;101334.78;;;9.63;90.48
12781;BME280;6454;43.304;24.344;2023-01-23T10:24:11;101333.41;;;9.60;90.93
12781;BME280;6454;43.304;24.344;2023-01-23T10:26:44;101328.88;;;9.66;91.26
12781;BME280;6454;43.304;24.344;2023-01-23T10:29:16;101333.31;;;9.72;90.88
12781;BME280;6454;43.304;24.344;2023-01-23T10:31:50;101333.78;;;9.69;90.87
12781;BME280;6454;43.304;24.344;2023-01-23T10:34:20;101312.97;;;9.53;90.89
12781;BME280;6454;43.304;24.344;2023-01-23T10:37:01;101317.72;;;9.62;91.52
12781;BME280;6454;43.304;24.344;2023-01-23T10:39:44;101323.38;;;9.61;91.54
12781;BME280;6454;43.304;24.344;2023-01-23T10:42:12;101330.41;;;9.57;91.59
12781;BME280;6454;43.304;24.344;2023-01-23T10:44:39;101335.22;;;9.55;92.20
12781;BME280;6454;43.304;24.344;2023-01-23T10:47:17;101328.66;;;9.51;91.06
12781;BME280;6454;43.304;24.344;2023-01-23T10:49:45;101330.81;;;9.49;91.22
12781;BME280;6454;43.304;24.344;2023-01-23T10:52:31;101330.75;;;9.44;92.18
12781;BME280;6454;43.304;24.344;2023-01-23T10:54:58;101326.78;;;9.51;91.53
12781;BME280;6454;43.304;24.344;2023-01-23T10:57:27;101338.88;;;9.44;90.67
12781;BME280;6454;43.304;24.344;2023-01-23T10:59:56;101331.94;;;9.31;91.34
12781;BME280;6454;43.304;24.344;2023-01-23T11:02:30;101326.00;;;9.34;91.77
12781;BME280;6454;43.304;24.344;2023-01-23T11:04:58;101344.72;;;9.36;92.35
12781;BME280;6454;43.304;24.344;2023-01-23T11:07:26;101336.78;;;9.29;92.40
12781;BME280;6454;43.304;24.344;2023-01-23T11:09:55;101348.44;;;9.30;91.76
12781;BME280;6454;43.304;24.344;2023-01-23T11:12:24;101335.88;;;9.24;92.68
12781;BME280;6454;43.304;24.344;2023-01-23T11:15:10;101346.78;;;9.29;92.77
12781;BME280;6454;43.304;24.344;2023-01-23T11:17:40;101341.50;;;9.39;93.52
12781;BME280;6454;43.304;24.344;2023-01-23T11:20:22;101343.34;;;9.55;92.89
12781;BME280;6454;43.304;24.344;2023-01-23T11:23:01;101335.28;;;9.60;91.38
12781;BME280;6454;43.304;24.344;2023-01-23T11:25:30;101337.00;;;9.66;91.35
12781;BME280;6454;43.304;24.344;2023-01-23T11:27:58;101343.47;;;9.65;90.35
12781;BME280;6454;43.304;24.344;2023-01-23T11:30:40;101328.47;;;9.57;89.63
12781;BME280;6454;43.304;24.344;2023-01-23T11:33:15;101334.91;;;9.51;89.83
12781;BME280;6454;43.304;24.344;2023-01-23T11:35:57;101356.75;;;9.45;90.40
12781;BME280;6454;43.304;24.344;2023-01-23T11:38:30;101341.44;;;9.34;90.58
12781;BME280;6454;43.304;24.344;2023-01-23T11:41:01;101347.84;;;9.28;90.67
12781;BME280;6454;43.304;24.344;2023-01-23T11:43:29;101348.28;;;9.20;91.69
12781;BME280;6454;43.304;24.344;2023-01-23T11:46:13;101345.56;;;9.20;92.04
12781;BME280;6454;43.304;24.344;2023-01-23T11:48:55;101339.91;;;9.21;92.36
12781;BME280;6454;43.304;24.344;2023-01-23T11:51:31;101352.75;;;9.31;91.79
12781;BME280;6454;43.304;24.344;2023-01-23T11:54:12;101353.41;;;9.38;91.53
12781;BME280;6454;43.304;24.344;2023-01-23T11:56:52;101345.53;;;9.36;91.04
12781;BME280;6454;43.304;24.344;2023-01-23T11:59:51;101343.94;;;9.40;91.28
12781;BME280;6454;43.304;24.344;2023-01-23T12:03:04;101334.69;;;9.36;90.78
12781;BME280;6454;43.304;24.344;2023-01-23T12:05:51;101333.13;;;9.40;90.76
12781;BME280;6454;43.304;24.344;2023-01-23T12:08:27;101346.16;;;9.43;90.90
12781;BME280;6454;43.304;24.344;2023-01-23T12:11:06;101324.31;;;9.50;91.05
12781;BME280;6454;43.304;24.344;2023-01-23T12:13:54;101328.94;;;9.49;90.88
12781;BME280;6454;43.304;24.344;2023-01-23T12:16:27;101340.50;;;9.45;90.69
12781;BME280;6454;43.304;24.344;2023-01-23T12:19:15;101340.13;;;9.36;90.54
12781;BME280;6454;43.304;24.344;2023-01-23T12:21:52;101336.84;;;9.34;90.05
12781;BME280;6454;43.304;24.344;2023-01-23T12:24:35;101343.88;;;9.35;89.85
12781;BME280;6454;43.304;24.344;2023-01-23T12:27:11;101347.34;;;9.31;89.59
12781;BME280;6454;43.304;24.344;2023-01-23T12:32:43;101344.50;;;9.21;89.51
12781;BME280;6454;43.304;24.344;2023-01-23T12:35:25;101349.97;;;9.26;90.41
12781;BME280;6454;43.304;24.344;2023-01-23T12:38:08;101354.81;;;9.24;89.84
12781;BME280;6454;43.304;24.344;2023-01-23T12:40:38;101350.81;;;9.26;90.09
12781;BME280;6454;43.304;24.344;2023-01-23T12:43:10;101353.19;;;9.23;89.34
12781;BME280;6454;43.304;24.344;2023-01-23T12:45:43;101359.69;;;9.22;89.08
12781;BME280;6454;43.304;24.344;2023-01-23T12:48:16;101362.03;;;9.18;88.85
12781;BME280;6454;43.304;24.344;2023-01-23T12:50:47;101362.44;;;9.10;89.14
12781;BME280;6454;43.304;24.344;2023-01-23T12:53:19;101373.06;;;9.12;90.01
12781;BME280;6454;43.304;24.344;2023-01-23T12:55:57;101355.16;;;9.11;89.55
12781;BME280;6454;43.304;24.344;2023-01-23T12:58:27;101367.78;;;9.05;89.31
12781;BME280;6454;43.304;24.344;2023-01-23T13:01:05;101371.00;;;9.02;90.08
12781;BME280;6454;43.304;24.344;2023-01-23T13:03:49;101364.13;;;8.94;90.14
12781;BME280;6454;43.304;24.344;2023-01-23T13:06:32;101366.09;;;8.99;90.16
12781;BME280;6454;43.304;24.344;2023-01-23T13:09:06;101369.84;;;8.98;89.90
12781;BME280;6454;43.304;24.344;2023-01-23T13:11:42;101343.44;;;8.72;89.33
12781;BME280;6454;43.304;24.344;2023-01-23T13:14:22;101354.75;;;8.69;89.86